createdAt,value
2022-08-25T00:01:23.344Z,15.47
2022-08-25T00:03:55.270Z,15.45
2022-08-25T00:06:24.847Z,14.93
2022-08-25T00:08:52.550Z,15.20
2022-08-25T00:11:22.315Z,15.13
2022-08-25T00:13:57.743Z,14.57
2022-08-25T00:16:26.267Z,14.60
2022-08-25T00:18:56.722Z,15.63
2022-08-25T00:21:25.065Z,15.82
2022-08-25T00:23:52.876Z,14.75
2022-08-25T00:26:20.805Z,14.57
2022-08-25T00:28:48.491Z,14.80
2022-08-25T00:31:20.095Z,15.13
2022-08-25T00:33:48.899Z,15.57
2022-08-25T00:36:17.023Z,14.88
2022-08-25T00:38:46.269Z,14.48
2022-08-25T00:41:17.209Z,14.85
2022-08-25T00:43:47.636Z,16.48
2022-08-25T00:46:19.848Z,15.02
2022-08-25T00:51:18.530Z,14.90
2022-08-25T00:53:46.273Z,14.98
2022-08-25T00:56:14.499Z,15.15
2022-08-25T00:58:43.098Z,15.38
2022-08-25T01:01:11.049Z,14.98
2022-08-25T01:03:40.115Z,14.75
2022-08-25T01:06:07.950Z,14.35
2022-08-25T01:08:35.592Z,16.02
2022-08-25T01:11:06.022Z,14.82
2022-08-25T01:13:39.040Z,16.25
2022-08-25T01:16:07.198Z,14.85
2022-08-25T01:18:46.756Z,15.52
2022-08-25T01:21:16.545Z,16.35
2022-08-25T01:23:44.268Z,14.60
2022-08-25T01:26:15.036Z,15.63
2022-08-25T01:29:03.917Z,14.85
2022-08-25T01:31:32.526Z,15.55
2022-08-25T01:34:00.416Z,15.82
2022-08-25T01:36:30.507Z,16.23
2022-08-25T01:38:58.554Z,15.98
2022-08-25T01:41:32.674Z,16.25
2022-08-25T01:44:00.494Z,16.42
2022-08-25T01:46:28.833Z,16.98
2022-08-25T01:48:56.559Z,16.63
2022-08-25T01:51:26.482Z,16.27
2022-08-25T01:53:55.514Z,17.65
2022-08-25T01:56:23.226Z,17.35
2022-08-25T01:58:51.041Z,16.95
2022-08-25T02:01:21.718Z,16.08
2022-08-25T02:03:51.893Z,17.45
2022-08-25T02:06:28.827Z,16.10
2022-08-25T02:09:01.079Z,17.73
2022-08-25T02:11:29.523Z,17.42
2022-08-25T02:13:59.144Z,16.58
2022-08-25T02:16:29.077Z,17.63
2022-08-25T02:18:57.057Z,16.90
2022-08-25T02:21:24.706Z,19.77
2022-08-25T02:23:53.336Z,17.63
2022-08-25T02:26:23.030Z,19.05
2022-08-25T02:28:52.302Z,17.30
2022-08-25T02:31:22.415Z,17.52
2022-08-25T02:33:50.257Z,18.02
2022-08-25T02:36:18.031Z,18.50
2022-08-25T02:38:46.213Z,18.42
2022-08-25T02:41:15.557Z,18.13
2022-08-25T02:43:45.243Z,17.88
2022-08-25T02:46:13.402Z,18.55
2022-08-25T02:48:41.540Z,18.13
2022-08-25T02:51:11.169Z,19.15
2022-08-25T02:53:40.489Z,18.75
2022-08-25T02:56:08.803Z,18.27
2022-08-25T02:58:37.083Z,17.30
2022-08-25T03:01:07.376Z,19.55
2022-08-25T03:03:39.353Z,18.88
2022-08-25T03:06:08.242Z,19.58
2022-08-25T03:08:36.634Z,19.58
2022-08-25T03:11:05.213Z,20.33
2022-08-25T03:13:33.025Z,20.20
2022-08-25T03:16:01.335Z,24.75
2022-08-25T03:18:32.314Z,21.08
2022-08-25T03:21:00.193Z,21.17
2022-08-25T03:23:27.860Z,22.30
2022-08-25T03:26:13.139Z,23.38
2022-08-25T03:28:41.771Z,20.67
2022-08-25T03:31:10.358Z,21.85
2022-08-25T03:33:40.155Z,24.70
2022-08-25T03:36:09.587Z,21.88
2022-08-25T03:38:38.221Z,25.95
2022-08-25T03:41:14.521Z,29.23
2022-08-25T03:43:42.639Z,26.73
2022-08-25T03:46:10.462Z,22.05
2022-08-25T03:48:39.494Z,22.38
2022-08-25T03:51:07.444Z,26.52
2022-08-25T03:53:35.103Z,21.67
2022-08-25T03:56:02.746Z,22.30
2022-08-25T03:58:30.390Z,27.73
2022-08-25T04:01:00.336Z,27.75
2022-08-25T04:03:28.262Z,33.05
2022-08-25T04:05:57.534Z,25.20
2022-08-25T04:08:25.214Z,23.88
2022-08-25T04:10:52.872Z,24.20
2022-08-25T04:13:20.529Z,29.83
2022-08-25T04:15:48.156Z,27.98
2022-08-25T04:18:15.985Z,27.35
2022-08-25T04:20:46.718Z,30.08
2022-08-25T04:23:15.995Z,33.38
2022-08-25T04:25:43.760Z,28.70
2022-08-25T04:28:14.131Z,28.65
2022-08-25T04:30:43.610Z,29.88
2022-08-25T04:33:11.210Z,34.42
2022-08-25T04:35:39.058Z,26.63
2022-08-25T04:38:08.746Z,27.40
2022-08-25T04:40:37.763Z,26.20
2022-08-25T04:43:05.454Z,29.95
2022-08-25T04:45:33.187Z,27.15
2022-08-25T04:48:01.358Z,27.77
2022-08-25T04:50:29.640Z,30.63
2022-08-25T04:52:57.927Z,26.95
2022-08-25T04:55:25.578Z,28.85
2022-08-25T04:57:54.560Z,33.25
2022-08-25T05:00:22.349Z,29.85
2022-08-25T05:02:50.209Z,29.55
2022-08-25T05:05:18.103Z,30.40
2022-08-25T05:07:46.758Z,25.77
2022-08-25T05:10:14.546Z,28.10
2022-08-25T05:12:42.208Z,28.55
2022-08-25T05:15:29.945Z,33.83
2022-08-25T05:17:57.965Z,31.85
2022-08-25T05:20:25.982Z,34.42
2022-08-25T05:22:53.600Z,32.13
2022-08-25T05:25:21.294Z,33.35
2022-08-25T05:27:48.982Z,28.38
2022-08-25T05:30:18.215Z,33.10
2022-08-25T05:32:45.977Z,29.63
2022-08-25T05:35:13.679Z,31.35
2022-08-25T05:37:41.322Z,29.15
2022-08-25T05:40:10.378Z,29.55
2022-08-25T05:42:38.202Z,31.90
2022-08-25T05:45:06.407Z,31.08
2022-08-25T05:47:35.426Z,35.72
2022-08-25T05:50:03.085Z,26.15
2022-08-25T05:52:30.840Z,30.65
2022-08-25T05:54:58.530Z,29.67
2022-08-25T05:57:26.223Z,32.15
2022-08-25T05:59:53.851Z,31.42
2022-08-25T06:02:39.018Z,36.28
2022-08-25T06:05:08.769Z,31.10
2022-08-25T06:07:36.775Z,32.08
2022-08-25T06:10:04.807Z,25.90
2022-08-25T06:12:33.951Z,28.38
2022-08-25T06:15:02.609Z,28.10
2022-08-25T06:17:30.298Z,29.85
2022-08-25T06:19:57.977Z,28.33
2022-08-25T06:22:26.981Z,29.98
2022-08-25T06:24:55.675Z,28.02
2022-08-25T06:27:23.294Z,28.13
2022-08-25T06:29:50.883Z,32.58
2022-08-25T06:32:23.689Z,31.90
2022-08-25T06:34:51.391Z,34.15
2022-08-25T06:37:21.230Z,31.05
2022-08-25T06:39:52.492Z,29.17
2022-08-25T06:42:20.203Z,31.50
2022-08-25T06:44:47.846Z,30.15
2022-08-25T06:47:16.042Z,26.83
2022-08-25T06:49:44.099Z,24.30
2022-08-25T06:52:12.387Z,23.20
2022-08-25T06:54:40.550Z,21.38
2022-08-25T06:57:09.939Z,24.98
2022-08-25T06:59:38.076Z,22.70
2022-08-25T07:02:09.582Z,21.83
2022-08-25T07:04:37.857Z,23.08
2022-08-25T07:07:05.645Z,21.50
2022-08-25T07:09:36.278Z,21.73
2022-08-25T07:12:07.416Z,26.63
2022-08-25T07:14:36.919Z,22.60
2022-08-25T07:17:10.472Z,22.52
2022-08-25T07:19:41.003Z,22.60
2022-08-25T07:22:09.401Z,21.02
2022-08-25T07:24:37.182Z,21.73
2022-08-25T07:27:05.303Z,21.55
2022-08-25T07:29:33.995Z,24.08
2022-08-25T07:32:04.278Z,22.35
2022-08-25T07:37:48.786Z,21.98
2022-08-25T07:40:19.727Z,21.02
2022-08-25T07:42:47.552Z,21.58
2022-08-25T07:45:15.574Z,21.10
2022-08-25T07:47:52.072Z,22.40
2022-08-25T07:50:20.241Z,21.58
2022-08-25T07:52:52.266Z,21.17
2022-08-25T07:55:22.867Z,19.98
2022-08-25T07:57:55.463Z,22.50
2022-08-25T08:00:27.479Z,21.42
2022-08-25T08:02:56.738Z,21.52
2022-08-25T08:05:25.163Z,21.90
2022-08-25T08:07:52.837Z,23.15
2022-08-25T08:13:10.062Z,20.55
2022-08-25T08:15:38.647Z,20.67
2022-08-25T08:18:07.646Z,19.80
2022-08-25T08:20:42.642Z,20.73
2022-08-25T08:23:11.187Z,21.85
2022-08-25T08:25:38.860Z,21.98
2022-08-25T08:28:07.314Z,19.67
2022-08-25T08:30:36.505Z,20.33
2022-08-25T08:33:10.093Z,19.35
2022-08-25T08:35:40.945Z,20.75
2022-08-25T08:38:14.507Z,18.35
2022-08-25T08:41:09.337Z,18.75
2022-08-25T08:43:37.338Z,17.63
2022-08-25T08:46:07.504Z,17.27
2022-08-25T08:48:45.118Z,17.02
2022-08-25T08:51:20.638Z,17.38
2022-08-25T08:53:57.365Z,17.75
2022-08-25T08:56:30.934Z,16.55
2022-08-25T08:59:05.671Z,17.25
2022-08-25T09:01:36.232Z,16.35
2022-08-25T09:04:10.366Z,16.38
2022-08-25T09:06:42.708Z,16.55
2022-08-25T09:09:13.631Z,16.67
2022-08-25T09:11:51.736Z,17.05
2022-08-25T09:14:30.639Z,16.45
2022-08-25T09:17:02.498Z,15.60
2022-08-25T09:19:44.661Z,16.98
2022-08-25T09:22:35.549Z,16.20
2022-08-25T09:25:10.369Z,16.98
2022-08-25T09:27:42.817Z,16.33
2022-08-25T09:30:12.620Z,16.33
2022-08-25T09:32:42.596Z,16.08
2022-08-25T09:35:21.476Z,17.27
2022-08-25T09:38:01.428Z,17.38
2022-08-25T09:40:30.840Z,17.15
2022-08-25T09:43:00.317Z,16.40
2022-08-25T09:45:35.933Z,16.75
2022-08-25T09:48:04.717Z,17.02
2022-08-25T09:50:34.865Z,16.08
2022-08-25T09:53:18.578Z,16.45
2022-08-25T09:55:48.376Z,16.38
2022-08-25T09:58:19.542Z,17.02
2022-08-25T10:01:03.101Z,16.58
2022-08-25T10:03:34.316Z,17.10
2022-08-25T10:06:07.436Z,15.98
2022-08-25T10:08:56.099Z,16.95
2022-08-25T10:11:35.431Z,16.10
2022-08-25T10:14:05.743Z,16.77
2022-08-25T10:16:36.516Z,15.35
2022-08-25T10:19:08.386Z,16.07
2022-08-25T10:21:36.509Z,15.85
2022-08-25T10:24:06.717Z,16.20
2022-08-25T10:26:42.995Z,15.20
2022-08-25T10:29:24.195Z,16.55
2022-08-25T10:31:57.895Z,15.88
2022-08-25T10:34:44.768Z,16.27
2022-08-25T10:37:19.167Z,16.00
2022-08-25T10:39:56.048Z,16.55
2022-08-25T10:42:31.593Z,16.48
2022-08-25T10:45:28.325Z,15.20
2022-08-25T10:48:23.061Z,16.13
2022-08-25T10:50:56.471Z,15.38
2022-08-25T10:53:30.084Z,16.42
2022-08-25T10:56:09.527Z,15.20
2022-08-25T10:59:01.458Z,15.05
2022-08-25T11:01:43.662Z,17.20
2022-08-25T11:04:15.609Z,16.98
2022-08-25T11:06:52.630Z,16.83
2022-08-25T11:09:23.576Z,16.45
2022-08-25T11:11:56.933Z,15.82
2022-08-25T11:14:32.648Z,16.45
2022-08-25T11:17:07.739Z,16.20
2022-08-25T11:19:37.942Z,16.02
2022-08-25T11:22:09.941Z,16.15
2022-08-25T11:24:54.226Z,15.45
2022-08-25T11:27:24.792Z,15.50
2022-08-25T11:30:01.799Z,15.88
2022-08-25T11:32:33.353Z,15.60
2022-08-25T11:35:02.422Z,16.63
2022-08-25T11:37:31.011Z,15.95
2022-08-25T11:40:16.863Z,15.15
2022-08-25T11:43:13.414Z,15.13
2022-08-25T11:45:54.215Z,15.85
2022-08-25T11:48:32.184Z,16.70
2022-08-25T11:51:03.032Z,16.33
2022-08-25T11:53:34.555Z,14.82
2022-08-25T11:56:04.557Z,16.92
2022-08-25T11:58:40.634Z,16.55
2022-08-25T12:01:11.789Z,16.13
2022-08-25T12:03:53.286Z,15.87
2022-08-25T12:06:28.337Z,17.05
2022-08-25T12:09:17.929Z,16.40
2022-08-25T12:11:51.949Z,15.77
2022-08-25T12:17:26.023Z,16.23
2022-08-25T12:19:59.294Z,16.10
2022-08-25T12:23:00.117Z,16.35
2022-08-25T12:28:40.007Z,15.48
2022-08-25T12:31:17.428Z,16.77
2022-08-25T12:33:56.588Z,15.02
2022-08-25T12:36:30.994Z,15.55
2022-08-25T12:39:16.082Z,15.15
2022-08-25T12:41:54.353Z,15.52
2022-08-25T12:44:38.199Z,16.15
2022-08-25T12:47:28.015Z,15.10
2022-08-25T12:50:28.597Z,15.77
2022-08-25T12:53:01.980Z,15.63
2022-08-25T12:55:29.894Z,16.42
2022-08-25T12:58:00.845Z,16.00
2022-08-25T13:00:30.756Z,16.75
2022-08-25T13:03:27.033Z,15.85
2022-08-25T13:06:37.813Z,15.70
2022-08-25T13:09:34.347Z,15.05
2022-08-25T13:12:10.069Z,15.63
2022-08-25T13:14:39.858Z,16.77
2022-08-25T13:17:09.678Z,15.90
2022-08-25T13:19:38.390Z,15.18
2022-08-25T13:22:16.022Z,15.88
2022-08-25T13:24:47.356Z,15.80
2022-08-25T13:27:22.840Z,16.00
2022-08-25T13:29:52.906Z,16.65
2022-08-25T13:32:31.928Z,15.32
2022-08-25T13:35:19.873Z,15.53
2022-08-25T13:37:48.369Z,15.70
2022-08-25T13:40:18.073Z,15.05
2022-08-25T13:42:52.962Z,15.30
2022-08-25T13:45:25.222Z,14.98
2022-08-25T13:47:56.093Z,15.48
2022-08-25T13:50:33.546Z,16.13
2022-08-25T13:53:04.694Z,15.48
2022-08-25T13:55:50.459Z,14.40
2022-08-25T13:58:24.680Z,15.73
2022-08-25T14:01:22.696Z,15.57
2022-08-25T14:03:53.863Z,15.43
2022-08-25T14:06:23.854Z,15.95
2022-08-25T14:09:09.383Z,16.15
2022-08-25T14:11:43.930Z,15.88
2022-08-25T14:14:14.681Z,15.25
2022-08-25T14:16:49.132Z,15.88
2022-08-25T14:19:20.181Z,16.58
2022-08-25T14:21:49.613Z,14.60
2022-08-25T14:24:23.270Z,15.35
2022-08-25T14:26:54.611Z,15.82
2022-08-25T14:29:22.952Z,15.63
2022-08-25T14:31:52.454Z,15.40
2022-08-25T14:34:22.681Z,15.35
2022-08-25T14:36:52.402Z,15.10
2022-08-25T14:39:21.486Z,15.57
2022-08-25T14:41:53.170Z,15.23
2022-08-25T14:44:21.951Z,16.42
2022-08-25T14:46:52.334Z,16.15
2022-08-25T14:49:25.011Z,14.90
2022-08-25T14:51:53.316Z,15.75
2022-08-25T14:54:24.922Z,14.93
2022-08-25T14:56:53.556Z,15.95
2022-08-25T14:59:21.356Z,16.05
2022-08-25T15:01:50.000Z,16.20
2022-08-25T15:04:20.258Z,16.20
2022-08-25T15:06:52.447Z,15.30
2022-08-25T15:09:21.109Z,15.93
2022-08-25T15:11:52.207Z,15.15
2022-08-25T15:14:28.512Z,15.18
2022-08-25T15:17:01.204Z,15.43
2022-08-25T15:19:29.576Z,14.48
2022-08-25T15:21:58.241Z,15.63
2022-08-25T15:24:28.476Z,15.48
2022-08-25T15:26:59.913Z,15.25
2022-08-25T15:29:30.637Z,15.73
2022-08-25T15:31:59.756Z,17.25
2022-08-25T15:34:27.651Z,15.95
2022-08-25T15:36:56.614Z,15.32
2022-08-25T15:39:24.298Z,14.70
2022-08-25T15:41:52.865Z,16.27
2022-08-25T15:44:24.136Z,15.50
2022-08-25T15:46:54.698Z,16.08
2022-08-25T15:49:24.279Z,16.25
2022-08-25T15:51:52.834Z,16.50
2022-08-25T15:54:22.647Z,16.55
2022-08-25T15:56:50.347Z,16.45
2022-08-25T15:59:21.819Z,17.15
2022-08-25T16:01:53.429Z,15.65
2022-08-25T16:04:22.062Z,19.20
2022-08-25T16:06:51.832Z,15.23
2022-08-25T16:09:23.048Z,15.52
2022-08-25T16:14:27.786Z,15.88
2022-08-25T16:16:58.422Z,15.02
2022-08-25T16:21:54.942Z,15.18
2022-08-25T16:24:22.593Z,15.48
2022-08-25T16:26:51.821Z,15.70
2022-08-25T16:29:20.373Z,15.60
2022-08-25T16:31:53.485Z,16.33
2022-08-25T16:34:24.509Z,14.95
2022-08-25T16:36:52.383Z,15.95
2022-08-25T16:39:20.081Z,15.90
2022-08-25T16:41:48.413Z,16.30
2022-08-25T16:44:19.546Z,15.43
2022-08-25T16:46:54.391Z,16.45
2022-08-25T16:49:24.307Z,16.08
2022-08-25T16:51:56.962Z,15.60
2022-08-25T16:54:40.044Z,17.52
2022-08-25T16:57:07.731Z,20.42
2022-08-25T16:59:35.433Z,19.48
2022-08-25T17:02:06.421Z,30.98
2022-08-25T17:04:34.199Z,20.58
2022-08-25T17:07:02.154Z,21.85
2022-08-25T17:09:30.109Z,20.50
2022-08-25T17:11:57.829Z,23.13
2022-08-25T17:14:25.682Z,24.58
2022-08-25T17:16:55.114Z,23.30
2022-08-25T17:19:25.055Z,22.88
2022-08-25T17:21:54.424Z,24.63
2022-08-25T17:24:29.560Z,21.33
2022-08-25T17:27:01.452Z,27.38
2022-08-25T17:29:29.769Z,26.45
2022-08-25T17:31:58.502Z,23.75
2022-08-25T17:34:29.082Z,31.45
2022-08-25T17:36:57.472Z,20.50
2022-08-25T17:39:26.537Z,21.70
2022-08-25T17:41:54.417Z,20.63
2022-08-25T17:44:22.090Z,20.08
2022-08-25T17:46:50.758Z,23.13
2022-08-25T17:49:19.528Z,23.33
2022-08-25T17:51:48.621Z,20.08
2022-08-25T17:54:17.290Z,22.50
2022-08-25T17:56:44.964Z,22.83
2022-08-25T17:59:13.716Z,21.38
2022-08-25T18:01:42.149Z,21.23
2022-08-25T18:04:17.419Z,20.55
2022-08-25T18:06:45.785Z,21.80
2022-08-25T18:09:14.796Z,22.92
2022-08-25T18:11:42.935Z,23.05
2022-08-25T18:14:11.307Z,21.42
2022-08-25T18:16:39.510Z,22.63
2022-08-25T18:19:09.670Z,26.40
2022-08-25T18:21:37.749Z,21.33
2022-08-25T18:24:05.818Z,24.45
2022-08-25T18:26:35.218Z,24.52
2022-08-25T18:29:02.934Z,23.20
2022-08-25T18:31:30.588Z,25.00
2022-08-25T18:33:58.491Z,24.05
2022-08-25T18:36:26.188Z,22.90
2022-08-25T18:39:11.584Z,20.38
2022-08-25T18:41:45.092Z,30.33
2022-08-25T18:44:12.944Z,21.60
2022-08-25T18:46:45.499Z,50.30
2022-08-25T18:49:15.802Z,29.42
2022-08-25T18:51:44.631Z,26.77
2022-08-25T18:54:23.398Z,29.67
2022-08-25T18:56:53.062Z,66.20
2022-08-25T18:59:23.725Z,59.60
2022-08-25T19:01:52.505Z,25.77
2022-08-25T19:04:20.365Z,39.60
2022-08-25T19:06:55.925Z,23.23
2022-08-25T19:09:23.670Z,31.48
2022-08-25T19:11:54.782Z,29.30
2022-08-25T19:14:22.470Z,25.60
2022-08-25T19:16:51.746Z,34.72
2022-08-25T19:19:20.276Z,35.65
2022-08-25T19:21:48.178Z,36.15
2022-08-25T19:24:16.895Z,31.45
2022-08-25T19:26:45.654Z,27.23
2022-08-25T19:29:17.196Z,36.38
2022-08-25T19:31:46.539Z,29.10
2022-08-25T19:34:19.140Z,31.67
2022-08-25T19:36:48.479Z,45.08
2022-08-25T19:39:16.647Z,41.80
2022-08-25T19:41:46.207Z,44.10
2022-08-25T19:44:15.249Z,71.20
2022-08-25T19:46:45.221Z,32.22
2022-08-25T19:49:15.117Z,25.55
2022-08-25T19:51:44.906Z,33.05
2022-08-25T19:54:14.573Z,27.95
2022-08-25T19:56:53.653Z,36.10
2022-08-25T19:59:25.055Z,34.30
2022-08-25T20:01:52.888Z,38.25
2022-08-25T20:04:20.984Z,53.15
2022-08-25T20:06:52.040Z,47.13
2022-08-25T20:09:35.787Z,48.58
2022-08-25T20:12:08.506Z,40.95
2022-08-25T20:14:37.584Z,31.80
2022-08-25T20:17:23.016Z,23.98
2022-08-25T20:19:54.158Z,23.73
2022-08-25T20:22:25.674Z,24.50
2022-08-25T20:24:56.026Z,25.02
2022-08-25T20:27:28.934Z,26.35
2022-08-25T20:29:57.940Z,30.02
2022-08-25T20:32:26.121Z,23.25
2022-08-25T20:34:56.944Z,30.03
2022-08-25T20:37:25.736Z,27.00
2022-08-25T20:39:54.030Z,28.20
2022-08-25T20:42:21.800Z,23.58
2022-08-25T20:44:49.442Z,26.92
2022-08-25T20:47:20.625Z,27.92
2022-08-25T20:49:48.909Z,28.77
2022-08-25T20:52:19.002Z,24.15
2022-08-25T20:54:49.636Z,25.55
2022-08-25T20:59:53.589Z,29.70
2022-08-25T21:02:22.934Z,26.02
2022-08-25T21:04:50.753Z,31.02
2022-08-25T21:07:18.481Z,25.38
2022-08-25T21:09:46.360Z,25.25
2022-08-25T21:12:14.086Z,29.67
2022-08-25T21:14:42.707Z,25.63
2022-08-25T21:17:12.893Z,31.63
2022-08-25T21:19:42.118Z,28.70
2022-08-25T21:22:10.838Z,28.85
2022-08-25T21:24:38.657Z,28.05
2022-08-25T21:27:07.229Z,24.15
2022-08-25T21:29:35.140Z,30.42
2022-08-25T21:32:03.326Z,31.55
2022-08-25T21:34:31.638Z,30.17
2022-08-25T21:37:00.629Z,23.35
2022-08-25T21:39:31.931Z,26.40
2022-08-25T21:42:00.568Z,29.35
2022-08-25T21:44:29.025Z,35.25
2022-08-25T21:46:57.134Z,30.35
2022-08-25T21:49:25.575Z,28.10
2022-08-25T21:52:00.859Z,23.83
2022-08-25T21:54:30.318Z,28.55
2022-08-25T21:56:59.981Z,26.65
2022-08-25T21:59:29.669Z,31.25
2022-08-25T22:01:58.037Z,27.83
2022-08-25T22:04:26.500Z,27.40
2022-08-25T22:06:54.142Z,25.13
2022-08-25T22:09:22.163Z,25.20
2022-08-25T22:11:53.276Z,24.23
2022-08-25T22:14:23.361Z,27.23
2022-08-25T22:16:51.987Z,28.55
2022-08-25T22:19:19.784Z,27.23
2022-08-25T22:21:47.442Z,27.05
2022-08-25T22:24:16.030Z,27.30
2022-08-25T22:26:47.512Z,28.15
2022-08-25T22:29:25.832Z,29.17
2022-08-25T22:31:54.238Z,26.65
2022-08-25T22:34:30.227Z,24.90
2022-08-25T22:36:59.623Z,24.30
2022-08-25T22:39:27.801Z,29.17
2022-08-25T22:41:55.585Z,25.15
2022-08-25T22:44:25.458Z,29.80
2022-08-25T22:46:53.316Z,25.38
2022-08-25T22:49:21.837Z,28.13
2022-08-25T22:51:49.941Z,24.65
2022-08-25T22:54:18.727Z,27.90
2022-08-25T22:56:46.382Z,24.27
2022-08-25T22:59:15.301Z,25.83
2022-08-25T23:01:45.524Z,25.95
2022-08-25T23:04:14.627Z,33.67
2022-08-25T23:06:42.969Z,33.88
2022-08-25T23:09:11.418Z,31.10
2022-08-25T23:11:39.701Z,22.77
2022-08-25T23:14:11.075Z,28.30
2022-08-25T23:16:39.623Z,24.73
2022-08-25T23:19:13.721Z,28.77
2022-08-25T23:21:59.604Z,32.67
2022-08-25T23:24:29.903Z,33.47
2022-08-25T23:26:58.433Z,25.30
2022-08-25T23:29:27.809Z,25.73
2022-08-25T23:31:56.446Z,24.38
2022-08-25T23:34:25.901Z,28.67
2022-08-25T23:36:53.736Z,28.08
2022-08-25T23:39:22.470Z,28.23
2022-08-25T23:41:50.272Z,26.65
2022-08-25T23:44:18.591Z,31.08
2022-08-25T23:46:47.464Z,25.08
2022-08-25T23:49:18.474Z,24.85
2022-08-25T23:51:48.651Z,25.08
2022-08-25T23:54:17.186Z,24.50
2022-08-25T23:56:51.686Z,24.67
2022-08-25T23:59:23.998Z,27.02
